Time;durP1;ratioP1;P1;durP2;ratioP2;P2;SDS_P1;SDS_P2;PMS_P1;PMS_P2;Temp;Humidity;BMP_temperature;BMP_pressure;BME280_temperature;BME280_humidity;BME280_pressure;Samples;Min_cycle;Max_cycle;Signal;HPM_P1;HPM_P2
2023/11/26 00:00:47;;;;;;;;;;;;;;;;;;5036249;28;19921;-71
2023/11/26 00:03:13;;;;;;;;;;;;;;;;;;5029860;28;19955;-71
2023/11/26 00:05:39;;;;;;;;;;;;;;;;;;5004086;28;20438;-71
2023/11/26 00:08:05;;;;;;;;;;;;;;;;;;5003736;28;19921;-71
2023/11/26 00:10:31;;;;;;;;;;;;;;;;;;5015994;28;20441;-71
2023/11/26 00:12:57;;;;;;;;;;;;;;;;;;5014417;28;20027;-73
2023/11/26 00:15:23;;;;;;;;;;;;;;;;;;5017231;28;20012;-71
2023/11/26 00:17:49;;;;;;;;;;;;;;;;;;5015128;28;19921;-71
2023/11/26 00:20:16;;;;;;;;;;;;;;;;;;4998378;28;19936;-72
2023/11/26 00:22:42;;;;;;;;;;;;;;;;;;5015278;28;19943;-71
2023/11/26 00:25:08;;;;;;;;;;;;;;;;;;5012431;28;19921;-72
2023/11/26 00:27:34;;;;;;;;;;;;;;;;;;5012459;28;19925;-72
2023/11/26 00:30:00;;;;;;;;;;;;;;;;;;5011534;28;19921;-72
2023/11/26 00:32:26;;;;;;;;;;;;;;;;;;5009773;28;19929;-72
2023/11/26 00:34:52;;;;;;;;;;;;;;;;;;5017860;28;21060;-72
2023/11/26 00:37:18;;;;;;;;;;;;;;;;;;5018323;28;20015;-72
2023/11/26 00:39:44;;;;;;;;;;;;;;;;;;4998374;28;20083;-72
2023/11/26 00:42:10;;;;;;;;;;;;;;;;;;5011809;28;19964;-72
2023/11/26 00:44:36;;;;;;;;;;;;;;;;;;5013293;28;19925;-72
2023/11/26 00:47:02;;;;;;;;;;;;;;;;;;5019149;28;19967;-72
2023/11/26 00:49:28;;;;;;;;;;;;;;;;;;4997715;28;19921;-72
2023/11/26 00:51:54;;;;;;;;;;;;;;;;;;5018365;28;19932;-72
2023/11/26 00:54:20;;;;;;;;;;;;;;;;;;5014717;28;19928;-72
2023/11/26 00:56:46;;;;;;;;;;;;;;;;;;5033399;28;20393;-73
2023/11/26 00:59:12;;;;;;;;;;;;;;;;;;5014238;28;19925;-72
2023/11/26 01:01:38;;;;;;;;;;;;;;;;;;5016306;28;19939;-72
2023/11/26 01:04:04;;;;;;;;;;;;;;;;;;5030529;28;20278;-72
2023/11/26 01:06:31;;;;;;;;;;;;;;;;;;5021084;28;20390;-72
2023/11/26 01:08:57;;;;;;;;;;;;;;;;;;5001056;28;20056;-72
2023/11/26 01:11:22;;;;;;;;;;;;;;;;;;5013774;28;19925;-73
2023/11/26 01:13:48;;;;;;;;;;;;;;;;;;5010564;28;19921;-72
2023/11/26 01:16:14;;;;;;;;;;;;;;;;;;5013602;28;20055;-72
2023/11/26 01:18:40;;;;;;;;;;;;;;;;;;5014076;28;19921;-72
2023/11/26 01:21:06;;;;;;;;;;;;;;;;;;5013604;28;20375;-73
2023/11/26 01:23:32;;;;;;;;;;;;;;;;;;5013636;28;20042;-72
2023/11/26 01:25:58;;;;;;;;;;;;;;;;;;5014269;28;20132;-71
2023/11/26 01:28:24;;;;;;;;;;;;;;;;;;5011144;28;19921;-72
2023/11/26 01:30:50;;;;;;;;;;;;;;;;;;5011327;28;19921;-72
2023/11/26 01:33:18;;;;;;;;;;;;;;;;;;5013112;28;19921;-72
2023/11/26 01:35:44;;;;;;;;;;;;;;;;;;5013554;28;19925;-72
2023/11/26 01:38:10;;;;;;;;;;;;;;;;;;5013199;28;19932;-72
2023/11/26 01:40:36;;;;;;;;;;;;;;;;;;5016139;28;19925;-72
2023/11/26 01:43:02;;;;;;;;;;;;;;;;;;5016393;28;19958;-72
2023/11/26 01:45:29;;;;;;;;;;;;;;;;;;5009872;28;20463;-72
2023/11/26 01:47:55;;;;;;;;;;;;;;;;;;5014376;28;19960;-72
2023/11/26 01:50:21;;;;;;;;;;;;;;;;;;5017207;28;19956;-72
2023/11/26 01:52:47;;;;;;;;;;;;;;;;;;5014127;28;19929;-72
2023/11/26 01:55:12;;;;;;;;;;;;;;;;;;5010108;28;19925;-72
2023/11/26 01:57:38;;;;;;;;;;;;;;;;;;5028558;28;19921;-72
2023/11/26 02:00:05;;;;;;;;;;;;;;;;;;5010917;28;20060;-70
2023/11/26 02:02:30;;;;;;;;;;;;;;;;;;5017251;28;19932;-71
2023/11/26 02:04:56;;;;;;;;;;;;;;;;;;5011148;28;19925;-71
2023/11/26 02:07:22;;;;;;;;;;;;;;;;;;5034109;28;19944;-72
2023/11/26 02:09:48;;;;;;;;;;;;;;;;;;5023669;28;19932;-71
2023/11/26 02:12:14;;;;;;;;;;;;;;;;;;5014391;28;19925;-72
2023/11/26 02:14:40;;;;;;;;;;;;;;;;;;5034613;28;19921;-71
2023/11/26 02:17:06;;;;;;;;;;;;;;;;;;5016052;28;19963;-71
2023/11/26 02:19:32;;;;;;;;;;;;;;;;;;5016308;28;19921;-71
2023/11/26 02:22:00;;;;;;;;;;;;;;;;;;5015034;28;19925;-71
2023/11/26 02:24:26;;;;;;;;;;;;;;;;;;5019267;28;19924;-71
2023/11/26 02:26:52;;;;;;;;;;;;;;;;;;4999135;28;20414;-72
2023/11/26 02:29:18;;;;;;;;;;;;;;;;;;5010435;28;20012;-72
2023/11/26 02:31:44;;;;;;;;;;;;;;;;;;5015126;28;20004;-72
2023/11/26 02:34:10;;;;;;;;;;;;;;;;;;5016347;28;20016;-72
2023/11/26 02:36:36;;;;;;;;;;;;;;;;;;5016849;28;20430;-72
2023/11/26 02:39:04;;;;;;;;;;;;;;;;;;5016755;28;19964;-72
2023/11/26 02:41:31;;;;;;;;;;;;;;;;;;5015089;28;19929;-71
2023/11/26 02:43:57;;;;;;;;;;;;;;;;;;5016565;28;20614;-71
2023/11/26 02:46:23;;;;;;;;;;;;;;;;;;5034934;28;19925;-71
2023/11/26 02:48:49;;;;;;;;;;;;;;;;;;5018587;28;19929;-72
2023/11/26 02:51:15;;;;;;;;;;;;;;;;;;5018933;28;20337;-72
2023/11/26 02:53:40;;;;;;;;;;;;;;;;;;5015439;28;19961;-72
2023/11/26 02:56:06;;;;;;;;;;;;;;;;;;5014323;28;19925;-72
2023/11/26 02:58:32;;;;;;;;;;;;;;;;;;5016564;28;19957;-71
2023/11/26 03:00:58;;;;;;;;;;;;;;;;;;5034978;28;19965;-71
2023/11/26 03:03:24;;;;;;;;;;;;;;;;;;5013727;28;20607;-72
2023/11/26 03:05:54;;;;;;;;;;;;;;;;;;5017370;28;19956;-72
2023/11/26 03:08:32;;;;;;;;;;;;;;;;;;5036750;28;19929;-71
2023/11/26 03:13:42;;;;;;;;;;;;;;;;;;5013413;28;20355;-72
2023/11/26 03:16:11;;;;;;;;;;;;;;;;;;5033668;28;19983;-72
2023/11/26 03:18:37;;;;;;;;;;;;;;;;;;5013727;28;19951;-72
2023/11/26 03:21:03;;;;;;;;;;;;;;;;;;5017161;28;19925;-72
2023/11/26 03:23:30;;;;;;;;;;;;;;;;;;5020063;28;19921;-72
2023/11/26 03:25:56;;;;;;;;;;;;;;;;;;5022623;28;20473;-71
2023/11/26 03:28:22;;;;;;;;;;;;;;;;;;5029444;28;20007;-72
2023/11/26 03:30:50;;;;;;;;;;;;;;;;;;5017372;28;19964;-72
2023/11/26 03:33:17;;;;;;;;;;;;;;;;;;5024327;28;19928;-72
2023/11/26 03:35:43;;;;;;;;;;;;;;;;;;5033267;28;20313;-71
2023/11/26 03:38:09;;;;;;;;;;;;;;;;;;5014621;28;19927;-73
2023/11/26 03:40:35;;;;;;;;;;;;;;;;;;5032544;28;19925;-71
2023/11/26 03:43:01;;;;;;;;;;;;;;;;;;5030025;28;19964;-71
2023/11/26 03:45:27;;;;;;;;;;;;;;;;;;5015572;28;19960;-72
2023/11/26 03:47:53;;;;;;;;;;;;;;;;;;5019003;28;19921;-71
2023/11/26 03:50:19;;;;;;;;;;;;;;;;;;5019584;28;20365;-71
2023/11/26 03:52:45;;;;;;;;;;;;;;;;;;5035480;28;19929;-71
2023/11/26 03:55:10;;;;;;;;;;;;;;;;;;5016678;28;20312;-71
2023/11/26 03:57:37;;;;;;;;;;;;;;;;;;5017155;28;19951;-71
2023/11/26 04:00:03;;;;;;;;;;;;;;;;;;5016502;28;20375;-72
2023/11/26 04:02:29;;;;;;;;;;;;;;;;;;5017726;28;19964;-72
2023/11/26 04:04:55;;;;;;;;;;;;;;;;;;5013740;28;19976;-71
2023/11/26 04:07:21;;;;;;;;;;;;;;;;;;5033968;28;20394;-71
2023/11/26 04:09:47;;;;;;;;;;;;;;;;;;5033823;28;19929;-72
2023/11/26 04:12:13;;;;;;;;;;;;;;;;;;5018862;28;19921;-72
2023/11/26 04:14:39;;;;;;;;;;;;;;;;;;5008924;28;19951;-71
2023/11/26 04:17:05;;;;;;;;;;;;;;;;;;5013573;28;19939;-72
2023/11/26 04:19:31;;;;;;;;;;;;;;;;;;5014017;28;19921;-72
2023/11/26 04:21:57;;;;;;;;;;;;;;;;;;5014629;28;19963;-72
2023/11/26 04:24:23;;;;;;;;;;;;;;;;;;5020982;28;19932;-72
2023/11/26 04:26:49;;;;;;;;;;;;;;;;;;5018389;28;20235;-72
2023/11/26 04:29:15;;;;;;;;;;;;;;;;;;5027919;28;19925;-72
2023/11/26 04:31:42;;;;;;;;;;;;;;;;;;4997806;28;20382;-72
2023/11/26 04:34:08;;;;;;;;;;;;;;;;;;5012220;28;19921;-72
2023/11/26 04:36:34;;;;;;;;;;;;;;;;;;5013314;28;19931;-71
2023/11/26 04:39:00;;;;;;;;;;;;;;;;;;5014100;28;19922;-71
2023/11/26 04:41:26;;;;;;;;;;;;;;;;;;5030935;28;19929;-72
2023/11/26 04:43:53;;;;;;;;;;;;;;;;;;5014509;28;20357;-72
2023/11/26 04:46:19;;;;;;;;;;;;;;;;;;5009882;28;19925;-72
2023/11/26 04:48:45;;;;;;;;;;;;;;;;;;5015361;28;19929;-72
2023/11/26 04:51:11;;;;;;;;;;;;;;;;;;5015385;28;20272;-72
2023/11/26 04:53:37;;;;;;;;;;;;;;;;;;5016680;28;19932;-71
2023/11/26 04:56:03;;;;;;;;;;;;;;;;;;5015277;28;20397;-71
2023/11/26 04:58:29;;;;;;;;;;;;;;;;;;5013380;28;19920;-72
2023/11/26 05:00:55;;;;;;;;;;;;;;;;;;5030174;28;19931;-72
2023/11/26 05:03:24;;;;;;;;;;;;;;;;;;5034822;28;20004;-72
2023/11/26 05:05:50;;;;;;;;;;;;;;;;;;5016286;28;19974;-72
2023/11/26 05:08:16;;;;;;;;;;;;;;;;;;5031690;28;19925;-72
2023/11/26 05:10:42;;;;;;;;;;;;;;;;;;5000735;28;19999;-72
2023/11/26 05:13:08;;;;;;;;;;;;;;;;;;5013503;28;19921;-72
2023/11/26 05:15:34;;;;;;;;;;;;;;;;;;5011597;28;19925;-72
2023/11/26 05:18:00;;;;;;;;;;;;;;;;;;5011699;28;19921;-72
2023/11/26 05:20:26;;;;;;;;;;;;;;;;;;5013414;28;19932;-72
2023/11/26 05:22:54;;;;;;;;;;;;;;;;;;5029044;28;19936;-73
2023/11/26 05:25:20;;;;;;;;;;;;;;;;;;5009766;28;19929;-72
2023/11/26 05:27:46;;;;;;;;;;;;;;;;;;5016976;28;20012;-71
2023/11/26 05:30:12;;;;;;;;;;;;;;;;;;5013314;28;20035;-72
2023/11/26 05:32:38;;;;;;;;;;;;;;;;;;5013093;28;20979;-72
2023/11/26 05:35:12;;;;;;;;;;;;;;;;;;5011100;28;20012;-71
2023/11/26 05:37:38;;;;;;;;;;;;;;;;;;5013650;28;19925;-73
2023/11/26 05:40:05;;;;;;;;;;;;;;;;;;5020568;28;19921;-72
2023/11/26 05:42:31;;;;;;;;;;;;;;;;;;5010848;28;19971;-72
2023/11/26 05:44:57;;;;;;;;;;;;;;;;;;5022354;28;19920;-71
2023/11/26 05:47:23;;;;;;;;;;;;;;;;;;5011250;28;19921;-72
2023/11/26 05:49:49;;;;;;;;;;;;;;;;;;5014467;28;20394;-72
2023/11/26 05:52:15;;;;;;;;;;;;;;;;;;5017915;28;20003;-72
2023/11/26 05:54:40;;;;;;;;;;;;;;;;;;5013547;28;20011;-72
2023/11/26 05:57:06;;;;;;;;;;;;;;;;;;5005065;28;19925;-72
2023/11/26 05:59:32;;;;;;;;;;;;;;;;;;5010530;28;19991;-71
2023/11/26 06:01:58;;;;;;;;;;;;;;;;;;5006432;28;20631;-72
2023/11/26 06:04:24;;;;;;;;;;;;;;;;;;5010910;28;19928;-72
2023/11/26 06:06:50;;;;;;;;;;;;;;;;;;5011818;28;19966;-72
2023/11/26 06:09:16;;;;;;;;;;;;;;;;;;5014702;28;19991;-72
2023/11/26 06:11:42;;;;;;;;;;;;;;;;;;5014091;28;19929;-71
2023/11/26 06:14:08;;;;;;;;;;;;;;;;;;5003126;28;19921;-71
2023/11/26 06:16:34;;;;;;;;;;;;;;;;;;5011108;28;19925;-72
2023/11/26 06:19:00;;;;;;;;;;;;;;;;;;5009138;28;20058;-72
2023/11/26 06:21:27;;;;;;;;;;;;;;;;;;5015751;28;19928;-72
2023/11/26 06:23:53;;;;;;;;;;;;;;;;;;5027119;28;19982;-72
2023/11/26 06:26:20;;;;;;;;;;;;;;;;;;5027810;28;19929;-73
2023/11/26 06:28:46;;;;;;;;;;;;;;;;;;5014019;28;19921;-72
2023/11/26 06:31:12;;;;;;;;;;;;;;;;;;5008571;28;20287;-73
2023/11/26 06:33:38;;;;;;;;;;;;;;;;;;4996713;28;19925;-73
2023/11/26 06:36:04;;;;;;;;;;;;;;;;;;5008068;28;19967;-73
2023/11/26 06:38:30;;;;;;;;;;;;;;;;;;5008437;28;20300;-72
2023/11/26 06:40:56;;;;;;;;;;;;;;;;;;5019378;28;19927;-72
2023/11/26 06:43:22;;;;;;;;;;;;;;;;;;5011299;28;19921;-71
2023/11/26 06:45:48;;;;;;;;;;;;;;;;;;5014732;28;19992;-71
2023/11/26 06:48:14;;;;;;;;;;;;;;;;;;5013548;28;20012;-71
2023/11/26 06:50:40;;;;;;;;;;;;;;;;;;5014775;28;19925;-72
2023/11/26 06:53:07;;;;;;;;;;;;;;;;;;5012916;28;19975;-72
2023/11/26 06:55:32;;;;;;;;;;;;;;;;;;5019327;28;20314;-72
2023/11/26 06:57:58;;;;;;;;;;;;;;;;;;5032888;28;19975;-71
2023/11/26 07:00:25;;;;;;;;;;;;;;;;;;5032073;28;19960;-71
2023/11/26 07:02:51;;;;;;;;;;;;;;;;;;5015715;28;19924;-72
2023/11/26 07:05:17;;;;;;;;;;;;;;;;;;5015892;28;19958;-72
2023/11/26 07:07:43;;;;;;;;;;;;;;;;;;5019304;28;20012;-71
2023/11/26 07:10:09;;;;;;;;;;;;;;;;;;5016914;28;19925;-72
2023/11/26 07:12:35;;;;;;;;;;;;;;;;;;5018188;28;19929;-70
2023/11/26 07:15:01;;;;;;;;;;;;;;;;;;5015925;28;20363;-71
2023/11/26 07:17:28;;;;;;;;;;;;;;;;;;5011787;28;19951;-72
2023/11/26 07:19:54;;;;;;;;;;;;;;;;;;5014756;28;19964;-72
2023/11/26 07:22:21;;;;;;;;;;;;;;;;;;5015367;28;19968;-73
2023/11/26 07:24:47;;;;;;;;;;;;;;;;;;5059975;22;19993;-63
2023/11/26 07:27:13;;;;;;;;;;;;;;;;;;5074367;28;19920;-63
2023/11/26 07:29:39;;;;;;;;;;;;;;;;;;5073465;28;20443;-62
2023/11/26 07:32:05;;;;;;;;;;;;;;;;;;5093672;28;20014;-63
2023/11/26 07:34:32;;;;;;;;;;;;;;;;;;5093586;28;19927;-63
2023/11/26 07:36:58;;;;;;;;;;;;;;;;;;5085086;28;21143;-63
2023/11/26 07:39:24;;;;;;;;;;;;;;;;;;5085868;28;19923;-63
2023/11/26 07:41:50;;;;;;;;;;;;;;;;;;5078611;28;20998;-63
2023/11/26 07:44:16;;;;;;;;;;;;;;;;;;5086454;28;19924;-63
2023/11/26 07:46:42;;;;;;;;;;;;;;;;;;5078771;28;19924;-63
2023/11/26 07:49:08;;;;;;;;;;;;;;;;;;5065350;28;19947;-63
2023/11/26 07:51:34;;;;;;;;;;;;;;;;;;5080813;28;20042;-63
2023/11/26 07:54:00;;;;;;;;;;;;;;;;;;5080303;28;20088;-63
2023/11/26 07:56:27;;;;;;;;;;;;;;;;;;5086642;28;20243;-63
2023/11/26 07:58:52;;;;;;;;;;;;;;;;;;5088891;28;19968;-63
2023/11/26 08:01:19;;;;;;;;;;;;;;;;;;5064937;28;20015;-63
2023/11/26 08:03:44;;;;;;;;;;;;;;;;;;5087335;28;20405;-63
2023/11/26 08:06:10;;;;;;;;;;;;;;;;;;5083880;28;19959;-63
2023/11/26 08:08:38;;;;;;;;;;;;;;;;;;5084590;28;19975;-63
2023/11/26 08:11:05;;;;;;;;;;;;;;;;;;5083922;28;19946;-63
2023/11/26 08:13:35;;;;;;;;;;;;;;;;;;5089710;28;20348;-63
2023/11/26 08:16:01;;;;;;;;;;;;;;;;;;5086187;28;19924;-64
2023/11/26 08:18:27;;;;;;;;;;;;;;;;;;5067201;28;20670;-64
2023/11/26 08:20:53;;;;;;;;;;;;;;;;;;5082999;28;19931;-64
2023/11/26 08:23:19;;;;;;;;;;;;;;;;;;5089883;28;19974;-65
2023/11/26 08:25:45;;;;;;;;;;;;;;;;;;5110789;27;19951;-63
2023/11/26 08:28:13;;;;;;;;;;;;;;;;;;5089259;28;20371;-64
2023/11/26 08:30:44;;;;;;;;;;;;;;;;;;5088692;28;19928;-64
2023/11/26 08:33:15;;;;;;;;;;;;;;;;;;5091131;28;19959;-64
2023/11/26 08:35:41;;;;;;;;;;;;;;;;;;5088338;28;20366;-64
2023/11/26 08:38:08;;;;;;;;;;;;;;;;;;5083146;28;19920;-64
2023/11/26 08:40:34;;;;;;;;;;;;;;;;;;5089175;28;19928;-64
2023/11/26 08:43:00;;;;;;;;;;;;;;;;;;5090445;28;19920;-63
2023/11/26 08:45:26;;;;;;;;;;;;;;;;;;5089203;28;19932;-64
2023/11/26 08:47:53;;;;;;;;;;;;;;;;;;5090162;28;20046;-64
2023/11/26 08:50:19;;;;;;;;;;;;;;;;;;5083238;28;19920;-64
2023/11/26 08:52:44;;;;;;;;;;;;;;;;;;5087899;28;19943;-64
2023/11/26 08:55:11;;;;;;;;;;;;;;;;;;5085688;28;19920;-64
2023/11/26 08:57:37;;;;;;;;;;;;;;;;;;5089146;28;19928;-63
2023/11/26 09:00:03;;;;;;;;;;;;;;;;;;5090311;28;19934;-63
2023/11/26 09:02:29;;;;;;;;;;;;;;;;;;5086109;28;19997;-63
2023/11/26 09:04:54;;;;;;;;;;;;;;;;;;5089381;28;19935;-63
2023/11/26 09:07:20;;;;;;;;;;;;;;;;;;5086791;28;19924;-64
2023/11/26 09:09:46;;;;;;;;;;;;;;;;;;5089737;28;20277;-64
2023/11/26 09:12:12;;;;;;;;;;;;;;;;;;5090906;28;19954;-64
2023/11/26 09:14:38;;;;;;;;;;;;;;;;;;5073034;28;19935;-63
2023/11/26 09:17:04;;;;;;;;;;;;;;;;;;5084864;28;19928;-63
2023/11/26 09:19:30;;;;;;;;;;;;;;;;;;5089001;28;19924;-63
2023/11/26 09:22:01;;;;;;;;;;;;;;;;;;5090901;28;19920;-64
2023/11/26 09:24:28;;;;;;;;;;;;;;;;;;5083084;28;19993;-64
2023/11/26 09:26:54;;;;;;;;;;;;;;;;;;5078485;28;19924;-64
2023/11/26 09:29:20;;;;;;;;;;;;;;;;;;5089445;28;19999;-64
2023/11/26 09:31:46;;;;;;;;;;;;;;;;;;5085930;28;20629;-63
2023/11/26 09:34:12;;;;;;;;;;;;;;;;;;5080398;28;19971;-63
2023/11/26 09:36:38;;;;;;;;;;;;;;;;;;5089629;28;20396;-63
2023/11/26 09:39:04;;;;;;;;;;;;;;;;;;5079846;28;20289;-63
2023/11/26 09:41:30;;;;;;;;;;;;;;;;;;5087630;28;19924;-63
2023/11/26 09:43:56;;;;;;;;;;;;;;;;;;5078661;28;19941;-63
2023/11/26 09:46:22;;;;;;;;;;;;;;;;;;5074628;28;19947;-63
2023/11/26 09:48:48;;;;;;;;;;;;;;;;;;5078008;28;19988;-63
2023/11/26 09:51:14;;;;;;;;;;;;;;;;;;5082154;28;20348;-63
2023/11/26 09:53:40;;;;;;;;;;;;;;;;;;5085636;28;20369;-63
2023/11/26 09:56:06;;;;;;;;;;;;;;;;;;5086381;28;19931;-63
2023/11/26 09:58:32;;;;;;;;;;;;;;;;;;5090029;28;19927;-63
2023/11/26 10:00:58;;;;;;;;;;;;;;;;;;5081253;28;19954;-63
2023/11/26 10:03:24;;;;;;;;;;;;;;;;;;5075271;28;19920;-63
2023/11/26 10:05:50;;;;;;;;;;;;;;;;;;5083866;28;19920;-63
2023/11/26 10:08:15;;;;;;;;;;;;;;;;;;5081539;28;20010;-63
2023/11/26 10:10:41;;;;;;;;;;;;;;;;;;5087795;28;20014;-64
2023/11/26 10:13:08;;;;;;;;;;;;;;;;;;5090624;28;20417;-64
2023/11/26 10:15:35;;;;;;;;;;;;;;;;;;5072401;28;19939;-64
2023/11/26 10:18:02;;;;;;;;;;;;;;;;;;5078252;28;20011;-63
2023/11/26 10:20:28;;;;;;;;;;;;;;;;;;5087769;28;19931;-64
2023/11/26 10:22:54;;;;;;;;;;;;;;;;;;5087061;28;20297;-64
2023/11/26 10:25:20;;;;;;;;;;;;;;;;;;5084113;28;19924;-64
2023/11/26 10:27:47;;;;;;;;;;;;;;;;;;5085039;28;19924;-64
2023/11/26 10:30:15;;;;;;;;;;;;;;;;;;5087053;28;20417;-64
2023/11/26 10:32:41;;;;;;;;;;;;;;;;;;5087047;28;20359;-64
2023/11/26 10:35:07;;;;;;;;;;;;;;;;;;5089276;28;19920;-64
2023/11/26 10:37:33;;;;;;;;;;;;;;;;;;5072119;28;19927;-64
2023/11/26 10:39:59;;;;;;;;;;;;;;;;;;5086146;28;19978;-63
2023/11/26 10:42:25;;;;;;;;;;;;;;;;;;5091557;28;20277;-64
2023/11/26 10:44:53;;;;;;;;;;;;;;;;;;5088943;28;20007;-63
2023/11/26 10:47:20;;;;;;;;;;;;;;;;;;5084811;28;20031;-64
2023/11/26 10:49:46;;;;;;;;;;;;;;;;;;5085377;28;20262;-67
2023/11/26 10:52:12;;;;;;;;;;;;;;;;;;5092754;28;19920;-64
2023/11/26 10:54:38;;;;;;;;;;;;;;;;;;5087352;28;19928;-63
2023/11/26 10:57:05;;;;;;;;;;;;;;;;;;5091277;28;19989;-63
2023/11/26 10:59:30;;;;;;;;;;;;;;;;;;5090719;28;20354;-63
2023/11/26 11:01:58;;;;;;;;;;;;;;;;;;5079908;28;20026;-63
2023/11/26 11:04:24;;;;;;;;;;;;;;;;;;5091667;28;19924;-63
2023/11/26 11:06:50;;;;;;;;;;;;;;;;;;5089788;28;19976;-63
2023/11/26 11:09:17;;;;;;;;;;;;;;;;;;5088473;28;19946;-63
2023/11/26 11:11:43;;;;;;;;;;;;;;;;;;5089017;28;20447;-64
2023/11/26 11:14:09;;;;;;;;;;;;;;;;;;5093140;28;20011;-63
2023/11/26 11:16:35;;;;;;;;;;;;;;;;;;5086145;28;20343;-64
2023/11/26 11:19:01;;;;;;;;;;;;;;;;;;5092281;28;19920;-63
2023/11/26 11:21:27;;;;;;;;;;;;;;;;;;5084994;28;19924;-63
2023/11/26 11:23:53;;;;;;;;;;;;;;;;;;5068239;28;19928;-63
2023/11/26 11:26:19;;;;;;;;;;;;;;;;;;5091863;28;20044;-64
2023/11/26 11:28:46;;;;;;;;;;;;;;;;;;5090818;28;19965;-63
2023/11/26 11:31:12;;;;;;;;;;;;;;;;;;5081062;28;19928;-64
2023/11/26 11:33:38;;;;;;;;;;;;;;;;;;5083793;28;19943;-64
2023/11/26 11:36:04;;;;;;;;;;;;;;;;;;5107344;28;19935;-63
2023/11/26 11:38:32;;;;;;;;;;;;;;;;;;5081103;28;19920;-62
2023/11/26 11:40:58;;;;;;;;;;;;;;;;;;5084853;28;19947;-63
2023/11/26 11:43:25;;;;;;;;;;;;;;;;;;5087476;28;19927;-62
2023/11/26 11:45:50;;;;;;;;;;;;;;;;;;5091066;28;20023;-62
2023/11/26 11:48:16;;;;;;;;;;;;;;;;;;5085940;28;20057;-62
2023/11/26 11:50:42;;;;;;;;;;;;;;;;;;5069366;28;19920;-65
2023/11/26 11:53:08;;;;;;;;;;;;;;;;;;5088085;28;19920;-65
2023/11/26 11:55:34;;;;;;;;;;;;;;;;;;5087464;28;19931;-64
2023/11/26 11:58:00;;;;;;;;;;;;;;;;;;5089494;28;20005;-64
2023/11/26 12:00:26;;;;;;;;;;;;;;;;;;5082120;28;19931;-64
2023/11/26 12:02:52;;;;;;;;;;;;;;;;;;5087348;28;19927;-64
2023/11/26 12:05:18;;;;;;;;;;;;;;;;;;5087431;28;19955;-63
2023/11/26 12:07:44;;;;;;;;;;;;;;;;;;5092393;28;19924;-64
2023/11/26 12:10:10;;;;;;;;;;;;;;;;;;5087191;28;20278;-64
2023/11/26 12:12:36;;;;;;;;;;;;;;;;;;5086915;28;19931;-63
2023/11/26 12:15:02;;;;;;;;;;;;;;;;;;5085506;28;19924;-63
2023/11/26 12:17:28;;;;;;;;;;;;;;;;;;5090726;28;19952;-64
2023/11/26 12:19:54;;;;;;;;;;;;;;;;;;5091308;28;19920;-64
2023/11/26 12:22:20;;;;;;;;;;;;;;;;;;5090947;28;20015;-64
2023/11/26 12:24:46;;;;;;;;;;;;;;;;;;5085545;28;19920;-63
2023/11/26 12:27:12;;;;;;;;;;;;;;;;;;5085722;28;19920;-64
2023/11/26 12:29:38;;;;;;;;;;;;;;;;;;5086877;28;20400;-65
2023/11/26 12:32:05;;;;;;;;;;;;;;;;;;5078750;28;19928;-64
2023/11/26 12:34:31;;;;;;;;;;;;;;;;;;5084478;28;19939;-65
2023/11/26 12:36:57;;;;;;;;;;;;;;;;;;5086920;28;19928;-65
2023/11/26 12:39:23;;;;;;;;;;;;;;;;;;5091535;28;19928;-65
2023/11/26 12:41:49;;;;;;;;;;;;;;;;;;5085852;28;19986;-64
2023/11/26 12:44:15;;;;;;;;;;;;;;;;;;5085512;28;20274;-62
2023/11/26 12:46:41;;;;;;;;;;;;;;;;;;5085953;28;19924;-63
2023/11/26 12:49:07;;;;;;;;;;;;;;;;;;5086404;28;19926;-64
2023/11/26 12:51:33;;;;;;;;;;;;;;;;;;5090824;28;19920;-63
2023/11/26 12:53:58;;;;;;;;;;;;;;;;;;5073871;28;20377;-63
2023/11/26 12:56:25;;;;;;;;;;;;;;;;;;5101314;28;19935;-64
2023/11/26 12:58:50;;;;;;;;;;;;;;;;;;5089788;28;20369;-64
2023/11/26 13:01:16;;;;;;;;;;;;;;;;;;5089859;28;19920;-63
2023/11/26 13:03:42;;;;;;;;;;;;;;;;;;5080859;28;19924;-63
2023/11/26 13:06:09;;;;;;;;;;;;;;;;;;5087549;28;19928;-64
2023/11/26 13:08:35;;;;;;;;;;;;;;;;;;5079713;28;19970;-64
2023/11/26 13:11:01;;;;;;;;;;;;;;;;;;5082361;28;20081;-63
2023/11/26 13:13:27;;;;;;;;;;;;;;;;;;5089042;28;19927;-63
2023/11/26 13:15:55;;;;;;;;;;;;;;;;;;5071282;28;19920;-64
2023/11/26 13:18:21;;;;;;;;;;;;;;;;;;5082580;28;19920;-65
2023/11/26 13:20:50;;;;;;;;;;;;;;;;;;5085495;28;19934;-65
2023/11/26 13:23:15;;;;;;;;;;;;;;;;;;5081790;28;19920;-65
2023/11/26 13:25:41;;;;;;;;;;;;;;;;;;5084917;28;19935;-65
2023/11/26 13:28:08;;;;;;;;;;;;;;;;;;5087352;28;19924;-65
2023/11/26 13:30:34;;;;;;;;;;;;;;;;;;5085432;28;20337;-64
2023/11/26 13:33:00;;;;;;;;;;;;;;;;;;5085863;28;19959;-64
2023/11/26 13:35:26;;;;;;;;;;;;;;;;;;5090100;28;20369;-64
2023/11/26 13:37:52;;;;;;;;;;;;;;;;;;5091335;28;19931;-64
2023/11/26 13:40:18;;;;;;;;;;;;;;;;;;5088595;28;19924;-64
2023/11/26 13:42:44;;;;;;;;;;;;;;;;;;5086983;28;19927;-64
2023/11/26 13:45:11;;;;;;;;;;;;;;;;;;5088077;28;19928;-64
2023/11/26 13:47:37;;;;;;;;;;;;;;;;;;5089244;28;19963;-64
2023/11/26 13:50:03;;;;;;;;;;;;;;;;;;5080038;28;19970;-65
2023/11/26 13:52:29;;;;;;;;;;;;;;;;;;5086160;28;20288;-64
2023/11/26 13:54:55;;;;;;;;;;;;;;;;;;5088383;28;19927;-64
2023/11/26 13:57:21;;;;;;;;;;;;;;;;;;5091565;28;19951;-64
2023/11/26 13:59:47;;;;;;;;;;;;;;;;;;5090665;28;20338;-65
2023/11/26 14:02:13;;;;;;;;;;;;;;;;;;5094793;28;19920;-64
2023/11/26 14:04:39;;;;;;;;;;;;;;;;;;5091448;28;19924;-64
2023/11/26 14:07:05;;;;;;;;;;;;;;;;;;5082300;28;19966;-64
2023/11/26 14:09:31;;;;;;;;;;;;;;;;;;5089476;28;20322;-64
2023/11/26 14:11:57;;;;;;;;;;;;;;;;;;5091012;28;19924;-64
2023/11/26 14:14:23;;;;;;;;;;;;;;;;;;5093734;28;19920;-64
2023/11/26 14:16:49;;;;;;;;;;;;;;;;;;5091961;28;19930;-64
2023/11/26 14:19:16;;;;;;;;;;;;;;;;;;5086672;28;19920;-64
2023/11/26 14:21:42;;;;;;;;;;;;;;;;;;5088069;28;19926;-64
2023/11/26 14:24:08;;;;;;;;;;;;;;;;;;5084806;28;19924;-64
2023/11/26 14:26:36;;;;;;;;;;;;;;;;;;5090901;28;19928;-64
2023/11/26 14:29:02;;;;;;;;;;;;;;;;;;5085327;28;20011;-64
2023/11/26 14:31:28;;;;;;;;;;;;;;;;;;5089981;28;19928;-65
2023/11/26 14:33:54;;;;;;;;;;;;;;;;;;5080792;28;19920;-64
2023/11/26 14:36:21;;;;;;;;;;;;;;;;;;5088149;28;20006;-65
2023/11/26 14:38:47;;;;;;;;;;;;;;;;;;5093046;28;20354;-64
2023/11/26 14:41:13;;;;;;;;;;;;;;;;;;5081015;28;19928;-64
2023/11/26 14:43:39;;;;;;;;;;;;;;;;;;5080728;28;20294;-64
2023/11/26 14:46:05;;;;;;;;;;;;;;;;;;5085934;28;19920;-64
2023/11/26 14:48:31;;;;;;;;;;;;;;;;;;5087858;28;20303;-64
2023/11/26 14:50:57;;;;;;;;;;;;;;;;;;5081892;28;19927;-65
2023/11/26 14:53:25;;;;;;;;;;;;;;;;;;5082236;28;20026;-64
2023/11/26 14:55:51;;;;;;;;;;;;;;;;;;5088492;28;20407;-65
2023/11/26 14:58:19;;;;;;;;;;;;;;;;;;5098446;28;19920;-64
2023/11/26 15:00:45;;;;;;;;;;;;;;;;;;5086618;28;19993;-65
2023/11/26 15:03:11;;;;;;;;;;;;;;;;;;5099462;28;20464;-65
2023/11/26 15:05:37;;;;;;;;;;;;;;;;;;5088374;28;19948;-65
2023/11/26 15:08:03;;;;;;;;;;;;;;;;;;5088915;28;19931;-65
2023/11/26 15:10:29;;;;;;;;;;;;;;;;;;5085949;28;19927;-64
2023/11/26 15:12:55;;;;;;;;;;;;;;;;;;5092003;28;19920;-63
2023/11/26 15:15:21;;;;;;;;;;;;;;;;;;5087162;28;19920;-64
2023/11/26 15:17:47;;;;;;;;;;;;;;;;;;5090581;28;19928;-65
2023/11/26 15:20:13;;;;;;;;;;;;;;;;;;5085871;28;19971;-65
2023/11/26 15:22:40;;;;;;;;;;;;;;;;;;5091239;28;19999;-64
2023/11/26 15:25:06;;;;;;;;;;;;;;;;;;5080408;28;19924;-65
2023/11/26 15:27:32;;;;;;;;;;;;;;;;;;5090900;28;19927;-65
2023/11/26 15:29:58;;;;;;;;;;;;;;;;;;5091564;28;20468;-65
2023/11/26 15:32:24;;;;;;;;;;;;;;;;;;5091919;28;19924;-65
2023/11/26 15:34:50;;;;;;;;;;;;;;;;;;5089105;28;19927;-65
2023/11/26 15:37:16;;;;;;;;;;;;;;;;;;5090611;28;19924;-65
2023/11/26 15:39:42;;;;;;;;;;;;;;;;;;5091036;28;19926;-64
2023/11/26 15:42:08;;;;;;;;;;;;;;;;;;5085768;28;19935;-64
2023/11/26 15:44:33;;;;;;;;;;;;;;;;;;5087042;28;20061;-64
2023/11/26 15:46:59;;;;;;;;;;;;;;;;;;5089733;28;20277;-64
2023/11/26 15:49:25;;;;;;;;;;;;;;;;;;5092325;28;19920;-64
2023/11/26 15:51:51;;;;;;;;;;;;;;;;;;5084760;28;20030;-64
2023/11/26 15:54:17;;;;;;;;;;;;;;;;;;5087536;28;20011;-65
2023/11/26 15:56:43;;;;;;;;;;;;;;;;;;5089169;28;19928;-65
2023/11/26 15:59:09;;;;;;;;;;;;;;;;;;5091525;28;19931;-64
2023/11/26 16:01:35;;;;;;;;;;;;;;;;;;5091924;28;19924;-64
2023/11/26 16:04:01;;;;;;;;;;;;;;;;;;5090519;28;19920;-65
2023/11/26 16:06:30;;;;;;;;;;;;;;;;;;5088362;28;20007;-64
2023/11/26 16:08:59;;;;;;;;;;;;;;;;;;5071742;28;20348;-64
2023/11/26 16:11:25;;;;;;;;;;;;;;;;;;5092801;28;20393;-64
2023/11/26 16:13:51;;;;;;;;;;;;;;;;;;5091774;28;20062;-64
2023/11/26 16:16:18;;;;;;;;;;;;;;;;;;5085524;28;19967;-65
2023/11/26 16:18:44;;;;;;;;;;;;;;;;;;5084588;28;19920;-65
2023/11/26 16:21:14;;;;;;;;;;;;;;;;;;5080398;28;19924;-64
2023/11/26 16:23:40;;;;;;;;;;;;;;;;;;5086778;28;19936;-66
2023/11/26 16:26:06;;;;;;;;;;;;;;;;;;5084369;28;20265;-64
2023/11/26 16:28:34;;;;;;;;;;;;;;;;;;5086698;28;20036;-64
2023/11/26 16:31:00;;;;;;;;;;;;;;;;;;5089104;28;20234;-65
2023/11/26 16:33:25;;;;;;;;;;;;;;;;;;5091016;28;19939;-65
2023/11/26 16:35:51;;;;;;;;;;;;;;;;;;5085906;28;19924;-65
2023/11/26 16:38:18;;;;;;;;;;;;;;;;;;5086934;28;19924;-65
2023/11/26 16:40:44;;;;;;;;;;;;;;;;;;5090898;28;19959;-65